San Salvador de Jujuy, Argentina
Current Conditions -  °F | °C
As of 11:00 AM on Friday 19 Dec 2014 (Local Time) from SASJ Reporting Station
Scattered Clouds Scattered Clouds  
Wind Chill: 77°   Ceiling: Unl
Heat Index: 79°   Visibility: 6mi
Dew Point: 64°   Wind: 5mph
Humidity: 65%   Direction: 70°ENE
Pressure: 29.88"   Gusts: NA
Location:  24.2°S, 65.3°W
Report Text: SASJ 191400Z 07004KT 320V110 9999 SCT02025/18 Q1012
Loading
Personal Weather Stations






























Interactive Weather Map New forecast layout! Learn more

10-Day Weather Forecast

Advertisements
Track Severe Weather on mobile